sensor_id;sensor_type;location;lat;lon;timestamp;temperature;humidity
8008;DHT22;4049;49.468;11.200;2023-09-12T00:00:39;18.40;99.90
8008;DHT22;4049;49.468;11.200;2023-09-12T00:03:06;18.40;99.90
8008;DHT22;4049;49.468;11.200;2023-09-12T00:05:35;18.30;99.90
8008;DHT22;4049;49.468;11.200;2023-09-12T00:08:02;18.30;99.90
8008;DHT22;4049;49.468;11.200;2023-09-12T00:10:29;18.20;99.90
8008;DHT22;4049;49.468;11.200;2023-09-12T00:12:56;18.20;99.90
8008;DHT22;4049;49.468;11.200;2023-09-12T00:15:25;18.20;99.90
8008;DHT22;4049;49.468;11.200;2023-09-12T00:17:52;18.10;99.90
8008;DHT22;4049;49.468;11.200;2023-09-12T00:20:19;18.10;99.90
8008;DHT22;4049;49.468;11.200;2023-09-12T00:22:46;18.00;99.90
8008;DHT22;4049;49.468;11.200;2023-09-12T00:25:13;18.00;99.90
8008;DHT22;4049;49.468;11.200;2023-09-12T00:27:40;17.90;99.90
8008;DHT22;4049;49.468;11.200;2023-09-12T00:30:07;17.90;99.90
8008;DHT22;4049;49.468;11.200;2023-09-12T00:32:35;17.90;99.90
8008;DHT22;4049;49.468;11.200;2023-09-12T00:35:02;17.90;99.90
8008;DHT22;4049;49.468;11.200;2023-09-12T00:37:29;17.80;99.90
8008;DHT22;4049;49.468;11.200;2023-09-12T00:39:56;17.80;99.90
8008;DHT22;4049;49.468;11.200;2023-09-12T00:42:28;17.70;99.90
8008;DHT22;4049;49.468;11.200;2023-09-12T00:44:55;17.70;99.90
8008;DHT22;4049;49.468;11.200;2023-09-12T00:47:22;17.60;99.90
8008;DHT22;4049;49.468;11.200;2023-09-12T00:49:51;17.60;99.90
8008;DHT22;4049;49.468;11.200;2023-09-12T00:52:20;17.60;99.90
8008;DHT22;4049;49.468;11.200;2023-09-12T00:54:48;17.60;99.90
8008;DHT22;4049;49.468;11.200;2023-09-12T00:57:15;17.50;99.90
8008;DHT22;4049;49.468;11.200;2023-09-12T00:59:42;17.60;99.90
8008;DHT22;4049;49.468;11.200;2023-09-12T01:02:09;17.50;99.90
8008;DHT22;4049;49.468;11.200;2023-09-12T01:04:37;17.50;99.90
8008;DHT22;4049;49.468;11.200;2023-09-12T01:07:05;17.40;99.90
8008;DHT22;4049;49.468;11.200;2023-09-12T01:09:32;17.40;99.90
8008;DHT22;4049;49.468;11.200;2023-09-12T01:12:00;17.40;99.90
8008;DHT22;4049;49.468;11.200;2023-09-12T01:14:28;17.30;99.90
8008;DHT22;4049;49.468;11.200;2023-09-12T01:16:55;17.30;99.90
8008;DHT22;4049;49.468;11.200;2023-09-12T01:19:23;17.30;99.90
8008;DHT22;4049;49.468;11.200;2023-09-12T01:22:20;17.30;99.90
8008;DHT22;4049;49.468;11.200;2023-09-12T01:25:14;17.30;99.90
8008;DHT22;4049;49.468;11.200;2023-09-12T01:27:49;17.20;99.90
8008;DHT22;4049;49.468;11.200;2023-09-12T01:30:20;17.20;99.90
8008;DHT22;4049;49.468;11.200;2023-09-12T01:32:47;17.20;99.90
8008;DHT22;4049;49.468;11.200;2023-09-12T01:35:15;17.10;99.90
8008;DHT22;4049;49.468;11.200;2023-09-12T01:37:41;17.10;99.90
8008;DHT22;4049;49.468;11.200;2023-09-12T01:40:12;17.10;99.90
8008;DHT22;4049;49.468;11.200;2023-09-12T01:42:46;17.00;99.90
8008;DHT22;4049;49.468;11.200;2023-09-12T01:45:16;17.00;99.90
8008;DHT22;4049;49.468;11.200;2023-09-12T01:47:45;17.00;99.90
8008;DHT22;4049;49.468;11.200;2023-09-12T01:50:13;17.00;99.90
8008;DHT22;4049;49.468;11.200;2023-09-12T01:52:41;17.00;99.90
8008;DHT22;4049;49.468;11.200;2023-09-12T01:55:08;16.90;99.90
8008;DHT22;4049;49.468;11.200;2023-09-12T01:57:37;16.90;99.90
8008;DHT22;4049;49.468;11.200;2023-09-12T02:00:07;16.90;99.90
8008;DHT22;4049;49.468;11.200;2023-09-12T02:02:34;16.80;99.90
8008;DHT22;4049;49.468;11.200;2023-09-12T02:05:09;16.80;99.90
8008;DHT22;4049;49.468;11.200;2023-09-12T02:07:38;16.80;99.90
8008;DHT22;4049;49.468;11.200;2023-09-12T02:10:06;16.70;99.90
8008;DHT22;4049;49.468;11.200;2023-09-12T02:12:33;16.70;99.90
8008;DHT22;4049;49.468;11.200;2023-09-12T02:15:00;16.60;99.90
8008;DHT22;4049;49.468;11.200;2023-09-12T02:17:28;16.60;99.90
8008;DHT22;4049;49.468;11.200;2023-09-12T02:19:55;16.60;99.90
8008;DHT22;4049;49.468;11.200;2023-09-12T02:22:24;16.60;99.90
8008;DHT22;4049;49.468;11.200;2023-09-12T02:24:51;16.60;99.90
8008;DHT22;4049;49.468;11.200;2023-09-12T02:27:18;16.60;99.90
8008;DHT22;4049;49.468;11.200;2023-09-12T02:29:44;16.60;99.90
8008;DHT22;4049;49.468;11.200;2023-09-12T02:32:11;16.60;99.90
8008;DHT22;4049;49.468;11.200;2023-09-12T02:34:39;16.60;99.90
8008;DHT22;4049;49.468;11.200;2023-09-12T02:37:06;16.60;99.90
8008;DHT22;4049;49.468;11.200;2023-09-12T02:39:33;16.60;99.90
8008;DHT22;4049;49.468;11.200;2023-09-12T02:42:00;16.50;99.90
8008;DHT22;4049;49.468;11.200;2023-09-12T02:44:27;16.50;99.90
8008;DHT22;4049;49.468;11.200;2023-09-12T02:46:54;16.40;99.90
8008;DHT22;4049;49.468;11.200;2023-09-12T02:49:21;16.40;99.90
8008;DHT22;4049;49.468;11.200;2023-09-12T02:51:49;16.30;99.90
8008;DHT22;4049;49.468;11.200;2023-09-12T02:54:16;16.30;99.90
8008;DHT22;4049;49.468;11.200;2023-09-12T02:56:43;16.30;99.90
8008;DHT22;4049;49.468;11.200;2023-09-12T02:59:09;16.30;99.90
8008;DHT22;4049;49.468;11.200;2023-09-12T03:01:36;16.20;99.90
8008;DHT22;4049;49.468;11.200;2023-09-12T03:04:03;16.20;99.90
8008;DHT22;4049;49.468;11.200;2023-09-12T03:06:30;16.20;99.90
8008;DHT22;4049;49.468;11.200;2023-09-12T03:08:58;16.20;99.90
8008;DHT22;4049;49.468;11.200;2023-09-12T03:11:26;16.10;99.90
8008;DHT22;4049;49.468;11.200;2023-09-12T03:13:53;16.20;99.90
8008;DHT22;4049;49.468;11.200;2023-09-12T03:16:20;16.10;99.90
8008;DHT22;4049;49.468;11.200;2023-09-12T03:18:48;16.10;99.90
8008;DHT22;4049;49.468;11.200;2023-09-12T03:21:15;16.10;99.90
8008;DHT22;4049;49.468;11.200;2023-09-12T03:23:42;16.10;99.90
8008;DHT22;4049;49.468;11.200;2023-09-12T03:26:10;16.10;99.90
8008;DHT22;4049;49.468;11.200;2023-09-12T03:28:37;16.10;99.90
8008;DHT22;4049;49.468;11.200;2023-09-12T03:31:08;16.10;99.90
8008;DHT22;4049;49.468;11.200;2023-09-12T03:33:37;16.00;99.90
8008;DHT22;4049;49.468;11.200;2023-09-12T03:36:04;16.00;99.90
8008;DHT22;4049;49.468;11.200;2023-09-12T03:38:32;16.00;99.90
8008;DHT22;4049;49.468;11.200;2023-09-12T03:40:59;15.90;99.90
8008;DHT22;4049;49.468;11.200;2023-09-12T03:43:27;15.90;99.90
8008;DHT22;4049;49.468;11.200;2023-09-12T03:45:54;15.90;99.90
8008;DHT22;4049;49.468;11.200;2023-09-12T03:48:21;15.90;99.90
8008;DHT22;4049;49.468;11.200;2023-09-12T03:50:47;15.90;99.90
8008;DHT22;4049;49.468;11.200;2023-09-12T03:53:15;15.80;99.90
8008;DHT22;4049;49.468;11.200;2023-09-12T03:55:44;15.80;99.90
8008;DHT22;4049;49.468;11.200;2023-09-12T03:58:11;15.70;99.90
8008;DHT22;4049;49.468;11.200;2023-09-12T04:00:40;15.70;99.90
8008;DHT22;4049;49.468;11.200;2023-09-12T04:03:06;15.70;99.90
8008;DHT22;4049;49.468;11.200;2023-09-12T04:05:33;15.70;99.90
8008;DHT22;4049;49.468;11.200;2023-09-12T04:08:00;15.60;99.90
8008;DHT22;4049;49.468;11.200;2023-09-12T04:10:27;15.60;99.90
8008;DHT22;4049;49.468;11.200;2023-09-12T04:12:54;15.60;99.90
8008;DHT22;4049;49.468;11.200;2023-09-12T04:15:21;15.60;99.90
8008;DHT22;4049;49.468;11.200;2023-09-12T04:17:49;15.70;99.90
8008;DHT22;4049;49.468;11.200;2023-09-12T04:20:16;15.50;99.90
8008;DHT22;4049;49.468;11.200;2023-09-12T04:22:43;15.50;99.90
8008;DHT22;4049;49.468;11.200;2023-09-12T04:25:10;15.50;99.90
8008;DHT22;4049;49.468;11.200;2023-09-12T04:27:37;15.50;99.90
8008;DHT22;4049;49.468;11.200;2023-09-12T04:30:05;15.40;99.90
8008;DHT22;4049;49.468;11.200;2023-09-12T04:32:31;15.40;99.90
8008;DHT22;4049;49.468;11.200;2023-09-12T04:35:00;15.40;99.90
8008;DHT22;4049;49.468;11.200;2023-09-12T04:37:27;15.40;99.90
8008;DHT22;4049;49.468;11.200;2023-09-12T04:39:53;15.30;99.90
8008;DHT22;4049;49.468;11.200;2023-09-12T04:42:20;15.30;99.90
8008;DHT22;4049;49.468;11.200;2023-09-12T04:44:48;15.30;99.90
8008;DHT22;4049;49.468;11.200;2023-09-12T04:47:15;15.30;99.90
8008;DHT22;4049;49.468;11.200;2023-09-12T04:49:44;15.20;99.90
8008;DHT22;4049;49.468;11.200;2023-09-12T04:52:13;15.20;99.90
8008;DHT22;4049;49.468;11.200;2023-09-12T04:54:40;15.20;99.90
8008;DHT22;4049;49.468;11.200;2023-09-12T04:57:07;15.20;99.90
8008;DHT22;4049;49.468;11.200;2023-09-12T04:59:34;15.20;99.90
8008;DHT22;4049;49.468;11.200;2023-09-12T05:02:01;15.20;99.90
8008;DHT22;4049;49.468;11.200;2023-09-12T05:04:28;15.20;99.90
8008;DHT22;4049;49.468;11.200;2023-09-12T05:06:55;15.20;99.90
8008;DHT22;4049;49.468;11.200;2023-09-12T05:09:24;15.20;99.90
8008;DHT22;4049;49.468;11.200;2023-09-12T05:11:50;15.20;99.90
8008;DHT22;4049;49.468;11.200;2023-09-12T05:14:17;15.10;99.90
8008;DHT22;4049;49.468;11.200;2023-09-12T05:16:44;15.20;99.90
8008;DHT22;4049;49.468;11.200;2023-09-12T05:19:11;15.20;99.90
8008;DHT22;4049;49.468;11.200;2023-09-12T05:21:38;15.20;99.90
8008;DHT22;4049;49.468;11.200;2023-09-12T05:24:05;15.20;99.90
8008;DHT22;4049;49.468;11.200;2023-09-12T05:26:34;15.20;99.90
8008;DHT22;4049;49.468;11.200;2023-09-12T05:29:00;15.20;99.90
8008;DHT22;4049;49.468;11.200;2023-09-12T05:31:28;15.20;99.90
8008;DHT22;4049;49.468;11.200;2023-09-12T05:33:55;15.30;99.90
8008;DHT22;4049;49.468;11.200;2023-09-12T05:36:21;15.20;99.90
8008;DHT22;4049;49.468;11.200;2023-09-12T05:38:50;15.20;99.90
8008;DHT22;4049;49.468;11.200;2023-09-12T05:41:17;15.30;99.90
8008;DHT22;4049;49.468;11.200;2023-09-12T05:43:45;15.30;99.90
8008;DHT22;4049;49.468;11.200;2023-09-12T05:46:12;15.30;99.90
8008;DHT22;4049;49.468;11.200;2023-09-12T05:48:39;15.30;99.90
8008;DHT22;4049;49.468;11.200;2023-09-12T05:51:06;15.30;99.90
8008;DHT22;4049;49.468;11.200;2023-09-12T05:53:32;15.40;99.90
8008;DHT22;4049;49.468;11.200;2023-09-12T05:55:59;15.40;99.90
8008;DHT22;4049;49.468;11.200;2023-09-12T05:58:27;15.30;99.90
8008;DHT22;4049;49.468;11.200;2023-09-12T06:00:56;15.50;99.90
8008;DHT22;4049;49.468;11.200;2023-09-12T06:03:23;15.50;99.90
8008;DHT22;4049;49.468;11.200;2023-09-12T06:05:50;15.60;99.90
8008;DHT22;4049;49.468;11.200;2023-09-12T06:08:17;15.50;99.90
8008;DHT22;4049;49.468;11.200;2023-09-12T06:10:44;15.60;99.90
8008;DHT22;4049;49.468;11.200;2023-09-12T06:13:10;15.60;99.90
8008;DHT22;4049;49.468;11.200;2023-09-12T06:15:38;15.70;99.90
8008;DHT22;4049;49.468;11.200;2023-09-12T06:18:08;15.80;99.90
8008;DHT22;4049;49.468;11.200;2023-09-12T06:20:34;15.80;99.90
8008;DHT22;4049;49.468;11.200;2023-09-12T06:23:01;15.80;99.90
8008;DHT22;4049;49.468;11.200;2023-09-12T06:25:29;15.90;99.90
8008;DHT22;4049;49.468;11.200;2023-09-12T06:27:56;15.90;99.90
8008;DHT22;4049;49.468;11.200;2023-09-12T06:30:22;16.00;99.90
8008;DHT22;4049;49.468;11.200;2023-09-12T06:32:49;16.00;99.90
8008;DHT22;4049;49.468;11.200;2023-09-12T06:35:18;16.10;99.90
8008;DHT22;4049;49.468;11.200;2023-09-12T06:37:44;16.20;99.90
8008;DHT22;4049;49.468;11.200;2023-09-12T06:40:12;16.20;99.90
8008;DHT22;4049;49.468;11.200;2023-09-12T06:42:39;16.20;99.90
8008;DHT22;4049;49.468;11.200;2023-09-12T06:45:07;16.30;99.90
8008;DHT22;4049;49.468;11.200;2023-09-12T06:47:34;16.30;99.90
8008;DHT22;4049;49.468;11.200;2023-09-12T06:50:01;16.40;99.90
8008;DHT22;4049;49.468;11.200;2023-09-12T06:52:29;16.40;99.90
8008;DHT22;4049;49.468;11.200;2023-09-12T06:54:56;16.50;99.90
8008;DHT22;4049;49.468;11.200;2023-09-12T06:57:23;16.60;99.90
8008;DHT22;4049;49.468;11.200;2023-09-12T06:59:50;16.70;99.90
8008;DHT22;4049;49.468;11.200;2023-09-12T07:02:17;16.70;99.90
8008;DHT22;4049;49.468;11.200;2023-09-12T07:04:44;16.80;99.90
8008;DHT22;4049;49.468;11.200;2023-09-12T07:07:10;16.90;99.90
8008;DHT22;4049;49.468;11.200;2023-09-12T07:09:39;16.90;99.90
8008;DHT22;4049;49.468;11.200;2023-09-12T07:12:06;17.00;99.90
8008;DHT22;4049;49.468;11.200;2023-09-12T07:14:33;17.10;99.90
8008;DHT22;4049;49.468;11.200;2023-09-12T07:17:00;17.10;99.90
8008;DHT22;4049;49.468;11.200;2023-09-12T07:19:27;17.20;99.90
8008;DHT22;4049;49.468;11.200;2023-09-12T07:21:55;17.30;99.90
8008;DHT22;4049;49.468;11.200;2023-09-12T07:24:25;17.30;99.90
8008;DHT22;4049;49.468;11.200;2023-09-12T07:26:53;17.50;99.90
8008;DHT22;4049;49.468;11.200;2023-09-12T07:29:20;17.50;99.90
8008;DHT22;4049;49.468;11.200;2023-09-12T07:31:47;17.70;99.90
8008;DHT22;4049;49.468;11.200;2023-09-12T07:34:13;17.70;99.90
8008;DHT22;4049;49.468;11.200;2023-09-12T07:36:40;17.80;99.90
8008;DHT22;4049;49.468;11.200;2023-09-12T07:39:07;17.90;99.90
8008;DHT22;4049;49.468;11.200;2023-09-12T07:41:34;18.00;99.90
8008;DHT22;4049;49.468;11.200;2023-09-12T07:44:03;18.00;99.90
8008;DHT22;4049;49.468;11.200;2023-09-12T07:46:30;18.10;99.90
8008;DHT22;4049;49.468;11.200;2023-09-12T07:48:57;18.20;99.90
8008;DHT22;4049;49.468;11.200;2023-09-12T07:51:25;18.30;99.90
8008;DHT22;4049;49.468;11.200;2023-09-12T07:53:51;18.40;99.90
8008;DHT22;4049;49.468;11.200;2023-09-12T07:56:18;18.50;99.90
8008;DHT22;4049;49.468;11.200;2023-09-12T07:58:45;18.50;99.90
8008;DHT22;4049;49.468;11.200;2023-09-12T08:01:14;18.70;99.90
8008;DHT22;4049;49.468;11.200;2023-09-12T08:03:42;18.70;99.90
8008;DHT22;4049;49.468;11.200;2023-09-12T08:06:11;18.80;99.90
8008;DHT22;4049;49.468;11.200;2023-09-12T08:08:38;18.90;99.90
8008;DHT22;4049;49.468;11.200;2023-09-12T08:11:05;19.00;99.90
8008;DHT22;4049;49.468;11.200;2023-09-12T08:13:32;19.10;99.90
8008;DHT22;4049;49.468;11.200;2023-09-12T08:15:59;19.20;99.90
8008;DHT22;4049;49.468;11.200;2023-09-12T08:18:29;19.30;99.90
8008;DHT22;4049;49.468;11.200;2023-09-12T08:20:57;19.40;99.90
8008;DHT22;4049;49.468;11.200;2023-09-12T08:23:28;19.60;99.90
8008;DHT22;4049;49.468;11.200;2023-09-12T08:25:54;19.80;99.90
8008;DHT22;4049;49.468;11.200;2023-09-12T08:28:22;19.90;99.90
8008;DHT22;4049;49.468;11.200;2023-09-12T08:30:48;20.00;99.90
8008;DHT22;4049;49.468;11.200;2023-09-12T08:33:15;20.20;99.90
8008;DHT22;4049;49.468;11.200;2023-09-12T08:35:43;20.20;99.90
8008;DHT22;4049;49.468;11.200;2023-09-12T08:38:10;20.40;99.90
8008;DHT22;4049;49.468;11.200;2023-09-12T08:40:37;20.50;99.90
8008;DHT22;4049;49.468;11.200;2023-09-12T08:43:04;20.60;99.90
8008;DHT22;4049;49.468;11.200;2023-09-12T08:45:32;20.70;99.90
8008;DHT22;4049;49.468;11.200;2023-09-12T08:48:00;20.80;99.90
8008;DHT22;4049;49.468;11.200;2023-09-12T08:50:27;20.90;99.90
8008;DHT22;4049;49.468;11.200;2023-09-12T08:52:59;21.00;99.90
8008;DHT22;4049;49.468;11.200;2023-09-12T08:55:26;21.10;99.90
8008;DHT22;4049;49.468;11.200;2023-09-12T08:57:53;21.10;99.90
8008;DHT22;4049;49.468;11.200;2023-09-12T09:00:22;21.20;99.90
8008;DHT22;4049;49.468;11.200;2023-09-12T09:02:50;21.30;99.90
8008;DHT22;4049;49.468;11.200;2023-09-12T09:05:20;21.50;99.90
8008;DHT22;4049;49.468;11.200;2023-09-12T09:07:48;21.50;99.90
8008;DHT22;4049;49.468;11.200;2023-09-12T09:10:18;21.60;99.90
8008;DHT22;4049;49.468;11.200;2023-09-12T09:12:46;21.70;99.90
8008;DHT22;4049;49.468;11.200;2023-09-12T09:15:20;21.80;99.90
8008;DHT22;4049;49.468;11.200;2023-09-12T09:17:48;21.90;99.90
8008;DHT22;4049;49.468;11.200;2023-09-12T09:20:23;22.00;99.90
8008;DHT22;4049;49.468;11.200;2023-09-12T09:22:57;22.10;99.90
8008;DHT22;4049;49.468;11.200;2023-09-12T09:25:25;22.30;99.90
8008;DHT22;4049;49.468;11.200;2023-09-12T09:27:52;22.40;99.90
8008;DHT22;4049;49.468;11.200;2023-09-12T09:30:39;22.50;99.90
8008;DHT22;4049;49.468;11.200;2023-09-12T09:33:06;22.60;99.90
8008;DHT22;4049;49.468;11.200;2023-09-12T09:35:33;22.70;99.90
8008;DHT22;4049;49.468;11.200;2023-09-12T09:38:00;22.80;99.90
8008;DHT22;4049;49.468;11.200;2023-09-12T09:40:29;22.90;99.90
8008;DHT22;4049;49.468;11.200;2023-09-12T09:42:58;23.00;99.90
8008;DHT22;4049;49.468;11.200;2023-09-12T09:45:25;23.10;99.90
8008;DHT22;4049;49.468;11.200;2023-09-12T09:47:52;23.20;99.90
8008;DHT22;4049;49.468;11.200;2023-09-12T09:50:22;23.30;99.90
8008;DHT22;4049;49.468;11.200;2023-09-12T09:52:53;23.40;99.90
8008;DHT22;4049;49.468;11.200;2023-09-12T09:55:21;23.50;99.90
8008;DHT22;4049;49.468;11.200;2023-09-12T09:57:49;23.60;99.90
8008;DHT22;4049;49.468;11.200;2023-09-12T10:00:18;23.70;99.90
8008;DHT22;4049;49.468;11.200;2023-09-12T10:02:47;23.70;99.90
8008;DHT22;4049;49.468;11.200;2023-09-12T10:05:15;23.80;99.90
8008;DHT22;4049;49.468;11.200;2023-09-12T10:07:43;23.90;99.90
8008;DHT22;4049;49.468;11.200;2023-09-12T10:10:11;24.10;99.90
8008;DHT22;4049;49.468;11.200;2023-09-12T10:12:42;24.20;99.90
8008;DHT22;4049;49.468;11.200;2023-09-12T10:15:12;24.40;99.90
8008;DHT22;4049;49.468;11.200;2023-09-12T10:17:43;24.60;99.90
8008;DHT22;4049;49.468;11.200;2023-09-12T10:20:17;24.70;99.90
8008;DHT22;4049;49.468;11.200;2023-09-12T10:22:51;24.80;99.90
8008;DHT22;4049;49.468;11.200;2023-09-12T10:25:19;24.90;99.90
8008;DHT22;4049;49.468;11.200;2023-09-12T10:27:48;25.00;99.90
8008;DHT22;4049;49.468;11.200;2023-09-12T10:30:17;25.10;99.90
8008;DHT22;4049;49.468;11.200;2023-09-12T10:32:45;25.20;99.90
8008;DHT22;4049;49.468;11.200;2023-09-12T10:35:12;25.40;99.90
8008;DHT22;4049;49.468;11.200;2023-09-12T10:37:41;25.50;99.90
8008;DHT22;4049;49.468;11.200;2023-09-12T10:40:11;25.60;99.90
8008;DHT22;4049;49.468;11.200;2023-09-12T10:42:41;25.70;99.90
8008;DHT22;4049;49.468;11.200;2023-09-12T10:45:10;25.80;99.90
8008;DHT22;4049;49.468;11.200;2023-09-12T10:47:38;25.80;99.90
8008;DHT22;4049;49.468;11.200;2023-09-12T10:50:06;26.00;99.90
8008;DHT22;4049;49.468;11.200;2023-09-12T10:52:33;26.00;99.90
8008;DHT22;4049;49.468;11.200;2023-09-12T10:55:04;26.20;99.90
8008;DHT22;4049;49.468;11.200;2023-09-12T10:57:32;26.30;99.90
8008;DHT22;4049;49.468;11.200;2023-09-12T11:00:11;26.40;99.90
8008;DHT22;4049;49.468;11.200;2023-09-12T11:02:40;26.50;99.90
8008;DHT22;4049;49.468;11.200;2023-09-12T11:05:37;26.70;99.90
8008;DHT22;4049;49.468;11.200;2023-09-12T11:08:04;26.80;99.90
8008;DHT22;4049;49.468;11.200;2023-09-12T11:10:31;26.80;99.90
8008;DHT22;4049;49.468;11.200;2023-09-12T11:12:58;27.00;99.90
8008;DHT22;4049;49.468;11.200;2023-09-12T11:15:26;27.00;99.90
8008;DHT22;4049;49.468;11.200;2023-09-12T11:18:02;27.20;99.90
8008;DHT22;4049;49.468;11.200;2023-09-12T11:20:50;27.30;99.90
8008;DHT22;4049;49.468;11.200;2023-09-12T11:23:17;27.40;99.90
8008;DHT22;4049;49.468;11.200;2023-09-12T11:25:44;27.50;99.90
8008;DHT22;4049;49.468;11.200;2023-09-12T11:28:11;27.60;99.90
8008;DHT22;4049;49.468;11.200;2023-09-12T11:30:55;27.60;99.90
8008;DHT22;4049;49.468;11.200;2023-09-12T11:33:24;27.70;99.90
8008;DHT22;4049;49.468;11.200;2023-09-12T11:35:52;27.80;99.90
8008;DHT22;4049;49.468;11.200;2023-09-12T11:38:27;27.80;99.90
8008;DHT22;4049;49.468;11.200;2023-09-12T11:40:54;27.90;99.90
8008;DHT22;4049;49.468;11.200;2023-09-12T11:43:23;28.00;99.90
8008;DHT22;4049;49.468;11.200;2023-09-12T11:45:50;28.10;99.90
8008;DHT22;4049;49.468;11.200;2023-09-12T11:48:18;28.10;99.90
8008;DHT22;4049;49.468;11.200;2023-09-12T11:50:52;28.10;99.90
8008;DHT22;4049;49.468;11.200;2023-09-12T11:53:20;28.10;99.90
8008;DHT22;4049;49.468;11.200;2023-09-12T11:55:49;28.10;99.90
8008;DHT22;4049;49.468;11.200;2023-09-12T11:58:18;28.20;99.90
8008;DHT22;4049;49.468;11.200;2023-09-12T12:00:46;28.20;99.90
8008;DHT22;4049;49.468;11.200;2023-09-12T12:03:14;28.20;99.90
8008;DHT22;4049;49.468;11.200;2023-09-12T12:05:41;28.20;99.90
8008;DHT22;4049;49.468;11.200;2023-09-12T12:08:10;28.30;99.90
8008;DHT22;4049;49.468;11.200;2023-09-12T12:10:38;28.40;99.90
8008;DHT22;4049;49.468;11.200;2023-09-12T12:13:05;28.40;99.90
8008;DHT22;4049;49.468;11.200;2023-09-12T12:15:33;28.50;99.90
8008;DHT22;4049;49.468;11.200;2023-09-12T12:18:00;28.50;99.90
8008;DHT22;4049;49.468;11.200;2023-09-12T12:20:27;28.50;99.90
8008;DHT22;4049;49.468;11.200;2023-09-12T12:22:56;28.60;99.90
8008;DHT22;4049;49.468;11.200;2023-09-12T12:25:24;28.50;99.90
8008;DHT22;4049;49.468;11.200;2023-09-12T12:27:51;28.50;99.90
8008;DHT22;4049;49.468;11.200;2023-09-12T12:30:18;28.60;99.90
8008;DHT22;4049;49.468;11.200;2023-09-12T12:32:46;28.60;99.90
8008;DHT22;4049;49.468;11.200;2023-09-12T12:35:17;28.60;99.90
8008;DHT22;4049;49.468;11.200;2023-09-12T12:37:44;28.60;99.90
8008;DHT22;4049;49.468;11.200;2023-09-12T12:40:12;28.60;99.90
8008;DHT22;4049;49.468;11.200;2023-09-12T12:42:41;28.70;99.90
8008;DHT22;4049;49.468;11.200;2023-09-12T12:45:12;28.80;99.90
8008;DHT22;4049;49.468;11.200;2023-09-12T12:47:39;28.80;99.90
8008;DHT22;4049;49.468;11.200;2023-09-12T12:50:08;28.80;99.20
8008;DHT22;4049;49.468;11.200;2023-09-12T12:52:35;28.80;99.90
8008;DHT22;4049;49.468;11.200;2023-09-12T12:55:04;28.80;99.90
8008;DHT22;4049;49.468;11.200;2023-09-12T12:57:31;28.80;99.90
8008;DHT22;4049;49.468;11.200;2023-09-12T13:00:00;28.90;99.90
8008;DHT22;4049;49.468;11.200;2023-09-12T13:02:28;28.90;99.90
8008;DHT22;4049;49.468;11.200;2023-09-12T13:04:55;28.90;99.90
8008;DHT22;4049;49.468;11.200;2023-09-12T13:07:22;28.80;99.90
8008;DHT22;4049;49.468;11.200;2023-09-12T13:09:49;28.90;99.90
8008;DHT22;4049;49.468;11.200;2023-09-12T13:12:19;28.90;99.90
8008;DHT22;4049;49.468;11.200;2023-09-12T13:14:46;28.90;99.90
8008;DHT22;4049;49.468;11.200;2023-09-12T13:17:15;28.90;99.90
8008;DHT22;4049;49.468;11.200;2023-09-12T13:19:41;29.00;99.90
8008;DHT22;4049;49.468;11.200;2023-09-12T13:22:08;29.00;99.90
8008;DHT22;4049;49.468;11.200;2023-09-12T13:24:35;29.10;99.70
8008;DHT22;4049;49.468;11.200;2023-09-12T13:27:02;29.10;99.90
8008;DHT22;4049;49.468;11.200;2023-09-12T13:29:29;29.20;99.50
8008;DHT22;4049;49.468;11.200;2023-09-12T13:31:56;29.20;99.90
8008;DHT22;4049;49.468;11.200;2023-09-12T13:34:24;29.20;99.90
8008;DHT22;4049;49.468;11.200;2023-09-12T13:36:51;29.30;99.90
8008;DHT22;4049;49.468;11.200;2023-09-12T13:39:17;29.30;99.90
8008;DHT22;4049;49.468;11.200;2023-09-12T13:41:44;29.40;99.90
8008;DHT22;4049;49.468;11.200;2023-09-12T13:44:11;29.40;98.50
8008;DHT22;4049;49.468;11.200;2023-09-12T13:46:38;29.50;97.90
8008;DHT22;4049;49.468;11.200;2023-09-12T13:49:05;29.50;99.00
8008;DHT22;4049;49.468;11.200;2023-09-12T13:51:33;29.60;98.60
8008;DHT22;4049;49.468;11.200;2023-09-12T13:54:01;29.70;98.50
8008;DHT22;4049;49.468;11.200;2023-09-12T13:56:28;29.80;98.10
8008;DHT22;4049;49.468;11.200;2023-09-12T13:58:55;29.90;97.30
8008;DHT22;4049;49.468;11.200;2023-09-12T14:01:22;30.10;94.90
8008;DHT22;4049;49.468;11.200;2023-09-12T14:03:49;30.20;96.50
8008;DHT22;4049;49.468;11.200;2023-09-12T14:06:16;30.30;93.70
8008;DHT22;4049;49.468;11.200;2023-09-12T14:08:44;30.50;93.80
8008;DHT22;4049;49.468;11.200;2023-09-12T14:11:11;30.60;89.90
8008;DHT22;4049;49.468;11.200;2023-09-12T14:13:38;30.70;84.30
8008;DHT22;4049;49.468;11.200;2023-09-12T14:16:05;30.80;83.60
8008;DHT22;4049;49.468;11.200;2023-09-12T14:18:32;30.90;82.90
8008;DHT22;4049;49.468;11.200;2023-09-12T14:20:58;31.00;78.50
8008;DHT22;4049;49.468;11.200;2023-09-12T14:23:25;31.00;80.50
8008;DHT22;4049;49.468;11.200;2023-09-12T14:25:53;31.00;78.00
8008;DHT22;4049;49.468;11.200;2023-09-12T14:28:20;31.00;82.70
8008;DHT22;4049;49.468;11.200;2023-09-12T14:30:47;31.00;77.60
8008;DHT22;4049;49.468;11.200;2023-09-12T14:33:15;31.00;78.40
8008;DHT22;4049;49.468;11.200;2023-09-12T14:35:43;30.90;77.60
8008;DHT22;4049;49.468;11.200;2023-09-12T14:38:10;30.90;80.40
8008;DHT22;4049;49.468;11.200;2023-09-12T14:40:37;30.80;80.10
8008;DHT22;4049;49.468;11.200;2023-09-12T14:43:06;30.70;78.60
8008;DHT22;4049;49.468;11.200;2023-09-12T14:45:33;30.70;79.30
8008;DHT22;4049;49.468;11.200;2023-09-12T14:48:00;30.60;75.60
8008;DHT22;4049;49.468;11.200;2023-09-12T14:50:27;30.60;77.00
8008;DHT22;4049;49.468;11.200;2023-09-12T14:52:55;30.50;79.30
8008;DHT22;4049;49.468;11.200;2023-09-12T14:55:22;30.40;82.20
8008;DHT22;4049;49.468;11.200;2023-09-12T14:57:49;30.30;75.70
8008;DHT22;4049;49.468;11.200;2023-09-12T15:00:17;30.20;76.00
8008;DHT22;4049;49.468;11.200;2023-09-12T15:02:44;30.20;77.50
8008;DHT22;4049;49.468;11.200;2023-09-12T15:05:11;30.10;74.60
8008;DHT22;4049;49.468;11.200;2023-09-12T15:07:38;30.10;77.30
8008;DHT22;4049;49.468;11.200;2023-09-12T15:10:05;30.10;77.90
8008;DHT22;4049;49.468;11.200;2023-09-12T15:12:32;30.10;77.50
8008;DHT22;4049;49.468;11.200;2023-09-12T15:14:59;30.00;73.80
8008;DHT22;4049;49.468;11.200;2023-09-12T15:17:27;30.00;76.00
8008;DHT22;4049;49.468;11.200;2023-09-12T15:19:54;29.90;78.80
8008;DHT22;4049;49.468;11.200;2023-09-12T15:22:21;29.90;74.40
8008;DHT22;4049;49.468;11.200;2023-09-12T15:24:47;29.90;76.90
8008;DHT22;4049;49.468;11.200;2023-09-12T15:27:15;29.80;75.20
8008;DHT22;4049;49.468;11.200;2023-09-12T15:29:42;29.70;79.40
8008;DHT22;4049;49.468;11.200;2023-09-12T15:32:09;29.60;83.00
8008;DHT22;4049;49.468;11.200;2023-09-12T15:34:37;29.50;79.60
8008;DHT22;4049;49.468;11.200;2023-09-12T15:37:09;29.40;79.00
8008;DHT22;4049;49.468;11.200;2023-09-12T15:39:36;29.30;85.60
8008;DHT22;4049;49.468;11.200;2023-09-12T15:42:04;29.30;83.20
8008;DHT22;4049;49.468;11.200;2023-09-12T15:44:31;29.20;86.90
8008;DHT22;4049;49.468;11.200;2023-09-12T15:46:58;29.10;87.30
8008;DHT22;4049;49.468;11.200;2023-09-12T15:49:27;29.10;86.00